Data for 09/28/2009

Time Sea-Level Adjusted Pressure Absolute Pressure Temperature Relative Humidity Dew Point   
(mb) (inHg) (mb) (inHg) (C) (F) (%) (C) (F)
00:05 1022 30.18 852 25.16 7.1 44.7 31 -8.7 16.3
00:10 1022 30.18 852 25.16 7 44.6 31 -8.9 16
00:15 1022 30.18 852 25.16 7 44.6 31 -8.9 16
00:20 1022 30.18 852 25.16 6.9 44.4 31 -9.1 15.6
00:25 1022 30.18 852 25.16 6.9 44.4 31 -9.2 15.4
00:30 1022 30.18 852 25.16 6.8 44.2 31 -9.2 15.4
00:35 1022 30.18 852 25.16 6.7 44.1 31 -9.1 15.6
00:40 1022 30.18 851 25.13 6.6 43.9 31 -9.5 15
00:45 1022 30.18 851 25.13 6.7 44.1 30 -9.5 14.9
00:50 1022 30.18 851 25.13 6.8 44.2 30 -9.7 14.6
00:55 1022 30.18 851 25.13 6.8 44.2 30 -9.7 14.6
01:00 1022 30.18 851 25.13 6.7 44.1 30 -9.8 14.4
01:05 1022 30.18 851 25.13 6.7 44.1 30 -9.8 14.4
01:10 1022 30.18 851 25.13 6.7 44.1 30 -9.7 14.5
01:15 1022 30.18 851 25.13 6.6 44 30 -9.6 14.7
01:20 1022 30.18 851 25.13 6.6 43.8 31 -9.5 14.8
01:25 1022 30.18 851 25.13 6.5 43.7 31 -9.6 14.8
01:30 1022 30.18 851 25.13 6.4 43.5 31 -9.4 15.1
01:35 1022 30.18 851 25.13 6.3 43.4 32 -9.3 15.2
01:40 1022 30.18 851 25.13 6.2 43.2 32 -9.3 15.2
01:45 1022 30.18 851 25.13 6.1 43 32 -9.3 15.3
01:50 1022 30.18 851 25.13 6.1 42.9 32 -9.3 15.3
01:55 1022 30.18 851 25.13 6 42.8 33 -9.2 15.5
02:00 1022 30.18 851 25.13 5.9 42.7 33 -9.3 15.2
02:05 1022 30.18 851 25.13 5.9 42.6 33 -9.3 15.2
02:10 1022 30.18 851 25.13 5.9 42.6 33 -9.3 15.2
02:15 1022 30.18 851 25.13 5.9 42.6 33 -9.3 15.2
02:20 1022 30.18 851 25.13 5.8 42.5 33 -9.3 15.2
02:25 1022 30.18 851 25.13 5.8 42.5 32 -9.5 15
02:30 1022 30.18 851 25.13 5.9 42.6 32 -9.4 15
02:35 1022 30.18 851 25.13 5.8 42.5 33 -9.4 15.1
02:40 1022 30.18 851 25.13 5.8 42.5 32 -9.5 14.9
02:45 1022 30.18 851 25.13 5.8 42.5 33 -9.4 15.2
02:50 1022 30.18 851 25.13 5.7 42.3 33 -9.5 15
02:55 1022 30.18 851 25.13 5.7 42.2 33 -9.4 15.1
03:00 1022 30.18 851 25.13 5.6 42.1 33 -9.4 15
03:05 1022 30.18 851 25.13 5.5 42 33 -9.4 15.1
03:10 1022 30.18 851 25.13 5.5 41.8 34 -9.3 15.2
03:15 1022 30.18 851 25.13 5.4 41.7 34 -9.4 15
03:20 1022 30.18 851 25.13 5.4 41.7 34 -9.4 15.2
03:25 1022 30.18 851 25.13 5.4 41.6 34 -9.4 15.1
03:30 1022 30.18 851 25.13 5.3 41.5 34 -9.4 15.1
03:35 1022 30.18 851 25.13 5.3 41.5 34 -9.5 15
03:40 1022 30.18 851 25.13 5.3 41.5 34 -9.5 15
03:45 1021 30.15 851 25.13 5.3 41.5 34 -9.5 14.9
03:50 1021 30.15 851 25.13 5.3 41.5 33 -9.5 14.8
03:55 1021 30.15 850 25.1 5.3 41.5 33 -9.5 14.8
04:00 1021 30.15 850 25.1 5.3 41.6 33 -9.6 14.7
04:05 1021 30.15 850 25.1 5.3 41.5 33 -9.6 14.7
04:10 1021 30.15 850 25.1 5.3 41.5 33 -9.7 14.6
04:15 1021 30.15 850 25.1 5.2 41.4 34 -9.6 14.7
04:20 1021 30.15 850 25.1 5.1 41.2 34 -9.6 14.8
04:25 1021 30.15 850 25.1 5 41 34 -9.6 14.8
04:30 1021 30.15 850 25.1 5 40.9 34 -9.6 14.8
04:35 1021 30.15 850 25.1 4.9 40.9 34 -9.5 14.9
04:40 1021 30.15 850 25.1 4.8 40.7 35 -9.5 14.9
04:45 1021 30.15 850 25.1 4.8 40.7 35 -9.5 14.9
04:50 1021 30.15 850 25.1 4.7 40.5 35 -9.5 14.9
04:55 1021 30.15 850 25.1 4.7 40.5 35 -9.5 15
05:00 1021 30.15 850 25.1 4.8 40.6 35 -9.6 14.7
05:05 1021 30.15 850 25.1 4.8 40.7 34 -9.6 14.7
05:10 1021 30.15 850 25.1 4.8 40.7 34 -9.6 14.7
05:15 1021 30.15 850 25.1 4.8 40.6 35 -9.5 14.9
05:20 1021 30.15 850 25.1 4.7 40.5 35 -9.5 14.8
05:25 1021 30.15 850 25.1 4.7 40.5 35 -9.6 14.7
05:30 1020 30.12 850 25.1 4.7 40.5 34 -9.7 14.5
05:35 1020 30.12 850 25.1 4.8 40.7 34 -9.8 14.4
05:40 1020 30.12 849 25.07 4.8 40.6 34 -9.6 14.6
05:45 1020 30.12 849 25.07 4.7 40.5 35 -9.6 14.7
05:50 1020 30.12 849 25.07 4.7 40.5 34 -9.9 14.2
05:55 1020 30.12 849 25.07 4.8 40.6 34 -9.8 14.3
06:00 1020 30.12 850 25.1 4.7 40.5 34 -9.8 14.3
06:05 1020 30.12 849 25.07 4.7 40.5 35 -9.6 14.7
06:10 1020 30.12 849 25.07 4.6 40.2 35 -9.7 14.5
06:15 1020 30.12 849 25.07 4.4 40 35 -9.6 14.7
06:20 1020 30.12 849 25.07 4.4 39.9 36 -9.6 14.7
06:25 1020 30.12 849 25.07 4.3 39.7 36 -9.6 14.7
06:30 1020 30.12 849 25.07 4.2 39.6 36 -9.6 14.8
06:35 1020 30.12 849 25.07 4.2 39.6 36 -9.6 14.7
06:40 1020 30.12 849 25.07 4.2 39.5 36 -9.6 14.7
06:45 1020 30.12 849 25.07 4.2 39.5 36 -9.7 14.6
06:50 1020 30.12 849 25.07 4.2 39.5 36 -9.5 14.8
06:55 1020 30.12 849 25.07 4.1 39.4 36 -9.6 14.7
07:00 1020 30.12 849 25.07 4.1 39.3 36 -9.7 14.6
07:05 1020 30.12 849 25.07 4 39.3 36 -9.6 14.6
07:10 1020 30.12 849 25.07 4 39.2 37 -9.6 14.7
07:15 1020 30.12 849 25.07 4 39.2 36 -9.7 14.5
07:20 1020 30.12 849 25.07 4 39.3 36 -9.8 14.4
07:25 1020 30.12 849 25.07 4 39.2 36 -9.6 14.8
07:30 1020 30.12 849 25.07 3.9 39.1 36 -9.7 14.6
07:35 1020 30.12 849 25.07 3.9 39.1 37 -9.7 14.6
07:40 1020 30.12 849 25.07 4 39.1 36 -9.7 14.6
07:45 1020 30.12 849 25.07 4 39.2 36 -9.7 14.5
07:50 1020 30.12 849 25.07 4 39.3 36 -9.6 14.7
07:55 1019 30.09 849 25.07 4.1 39.4 36 -9.7 14.6
08:00 1019 30.09 849 25.07 4.1 39.5 36 -9.7 14.5
08:05 1019 30.09 849 25.07 4.3 39.7 35 -9.7 14.5
08:10 1019 30.09 849 25.07 4.4 39.9 35 -9.7 14.5
08:15 1019 30.09 848 25.04 4.4 40 35 -9.8 14.4
08:20 1019 30.09 848 25.04 4.5 40.1 35 -9.8 14.4
08:25 1019 30.09 848 25.04 4.6 40.3 35 -9.7 14.5
08:30 1019 30.09 849 25.07 4.7 40.5 34 -9.8 14.3
08:35 1019 30.09 848 25.04 4.9 40.8 34 -9.8 14.3
08:40 1019 30.09 848 25.04 5.1 41.2 33 -9.7 14.5
08:45 1019 30.09 848 25.04 5.2 41.4 33 -9.8 14.3
08:50 1019 30.09 848 25.04 5.3 41.6 33 -9.8 14.3
08:55 1019 30.09 848 25.04 5.4 41.8 33 -9.7 14.5
09:00 1019 30.09 848 25.04 5.6 42 32 -9.7 14.5
09:05 1019 30.09 848 25.04 5.7 42.2 32 -9.7 14.5
09:10 1019 30.09 848 25.04 5.8 42.5 32 -9.7 14.5
09:15 1019 30.09 848 25.04 5.9 42.6 31 -9.8 14.3
09:20 1019 30.09 848 25.04 6.2 43.1 31 -9.7 14.5
09:25 1019 30.09 848 25.04 6.3 43.4 31 -9.5 14.9
09:30 1019 30.09 848 25.04 6.6 43.9 31 -9.5 14.9
09:35 1019 30.09 848 25.04 6.7 44.1 30 -9.5 14.9
09:40 1019 30.09 848 25.04 6.9 44.4 30 -9.6 14.7
09:45 1019 30.09 848 25.04 7.2 44.9 29 -9.5 14.9
09:50 1019 30.09 848 25.04 7.4 45.3 30 -9.3 15.3
09:55 1019 30.09 848 25.04 7.7 45.9 28 -9.5 14.9
10:00 1018 30.06 848 25.04 7.8 46 28 -9.4 15
10:05 1018 30.06 848 25.04 8 46.5 28 -9.4 15
10:10 1018 30.06 847 25.01 8.2 46.8 28 -9.3 15.3
10:15 1018 30.06 847 25.01 8.2 46.8 28 -9.3 15.2
10:20 1018 30.06 847 25.01 8.2 46.8 28 -9.1 15.6
10:25 1018 30.06 847 25.01 8.5 47.2 28 -9.1 15.6
10:30 1018 30.06 847 25.01 8.6 47.4 28 -9.2 15.5
10:35 1018 30.06 847 25.01 8.9 48 27 -9 15.8
10:40 1018 30.06 847 25.01 9 48.1 28 -8.7 16.4
10:45 1018 30.06 847 25.01 9.1 48.4 26 -9.2 15.4
10:50 1018 30.06 847 25.01 9.2 48.5 27 -8.9 16
10:55 1018 30.06 847 25.01 9.5 49 27 -8.8 16.1
11:00 1018 30.06 847 25.01 9.6 49.3 27 -8.4 16.8
11:05 1018 30.06 847 25.01 10 49.9 26 -8.7 16.3
11:10 1017 30.03 847 25.01 10.4 50.7 25 -8.7 16.3
11:15 1017 30.03 847 25.01 10.6 51 26 -8.3 17
11:20 1017 30.03 847 25.01 10.6 51.2 25 -8.4 16.8
11:25 1017 30.03 846 24.98 11 51.8 25 -8.4 16.9
11:30 1017 30.03 846 24.98 11 51.7 25 -8.3 17.1
11:35 1017 30.03 846 24.98 11.1 51.9 25 -8.3 17.1
11:40 1017 30.03 846 24.98 11.1 52 25 -8.3 17.1
11:45 1017 30.03 846 24.98 11.5 52.8 24 -8.2 17.3
11:50 1017 30.03 846 24.98 11.9 53.5 24 -8.3 17.1
11:55 1017 30.03 846 24.98 12.1 53.8 23 -8.3 17
12:00 1017 30.03 846 24.98 12.4 54.2 23 -8.3 17
12:05 1016 30 846 24.98 12.8 55 22 -8.3 17
12:10 1016 30 846 24.98 12.8 55.1 22 -8.4 16.8
12:15 1016 30 846 24.98 13 55.5 22 -8.2 17.3
12:20 1016 30 845 24.95 13.2 55.7 21 -8.5 16.8
12:25 1016 30 845 24.95 13.2 55.7 22 -7.8 17.9
12:30 1016 30 845 24.95 13.1 55.7 22 -7.9 17.7
12:35 1016 30 845 24.95 13.4 56.1 23 -7.2 19
12:40 1016 30 845 24.95 13.5 56.4 22 -7.7 18.2
12:45 1016 30 845 24.95 13.6 56.5 21 -8 17.6
12:50 1016 30 845 24.95 13.7 56.6 22 -7.7 18.2
12:55 1016 30 845 24.95 13.8 56.8 21 -8.1 17.4
13:00 1016 30 845 24.95 13.8 56.8 22 -7.8 18
13:05 1016 30 845 24.95 14 57.2 22 -7.5 18.4
13:10 1016 30 845 24.95 14.1 57.4 22 -7.5 18.5
13:15 1016 30 845 24.95 14.1 57.4 22 -7.4 18.6
13:20 1016 30 845 24.95 14.2 57.5 21 -8 17.5
13:25 1016 30 845 24.95 14.5 58.1 22 -7 19.5
13:30 1015 29.97 845 24.95 14.9 58.8 21 -7.4 18.7
13:35 1015 29.97 844 24.92 14.9 58.7 21 -7.2 19
13:40 1015 29.97 844 24.92 15 59 20 -7.5 18.5
13:45 1015 29.97 844 24.92 15 58.9 21 -7.1 19.2
13:50 1015 29.97 844 24.92 14.9 58.9 21 -7.1 19.2
13:55 1015 29.97 844 24.92 15.2 59.3 20 -7.5 18.5
14:00 1015 29.97 844 24.92 15.4 59.6 20 -7.2 19
14:05 1015 29.97 844 24.92 15.6 60 21 -6.7 20
14:10 1015 29.97 844 24.92 15.9 60.5 20 -7.2 19
14:15 1015 29.97 844 24.92 16.1 60.9 19 -7.2 19.1
14:20 1015 29.97 844 24.92 16.4 61.4 19 -7 19.4
14:25 1015 29.97 844 24.92 16 60.8 20 -7.1 19.3
14:30 1014 29.94 844 24.92 16.2 61.1 20 -7 19.3
14:35 1014 29.94 844 24.92 16.6 61.8 19 -7.3 18.9
14:40 1014 29.94 843 24.89 16.6 61.8 18 -7.4 18.7
14:45 1014 29.94 843 24.89 16.6 62 19 -7.1 19.3
14:50 1014 29.94 843 24.89 16.6 61.8 19 -7.1 19.3
14:55 1014 29.94 843 24.89 16.7 62.1 19 -7.1 19.3
15:00 1014 29.94 843 24.89 17.4 63.4 19 -6.6 20.2
15:05 1014 29.94 843 24.89 17 62.6 19 -6.8 19.7
15:10 1014 29.94 843 24.89 16.8 62.2 19 -7 19.4
15:15 1014 29.94 843 24.89 16.8 62.2 19 -6.7 19.9
15:20 1014 29.94 843 24.89 16.8 62.2 19 -6.8 19.7
15:25 1014 29.94 843 24.89 17.2 63 18 -7.3 18.8
15:30 1014 29.94 843 24.89 17.3 63.1 18 -7.2 19.1
15:35 1014 29.94 843 24.89 17.4 63.3 19 -6.7 20
15:40 1013 29.91 843 24.89 17.5 63.5 18 -6.7 20
15:45 1013 29.91 843 24.89 17.7 63.8 18 -6.6 20
15:50 1013 29.91 843 24.89 17.8 64 18 -6.9 19.6
15:55 1013 29.91 843 24.89 17.7 63.8 18 -6.7 19.9
16:00 1013 29.91 842 24.86 17.8 64 18 -7.1 19.3
16:05 1013 29.91 842 24.86 17.4 63.4 18 -7 19.4
16:10 1013 29.91 842 24.86 17.7 63.9 18 -6.7 20
16:15 1013 29.91 842 24.86 17.8 64 18 -6.9 19.6
16:20 1013 29.91 842 24.86 17.6 63.7 18 -6.9 19.5
16:25 1013 29.91 842 24.86 17.5 63.4 18 -6.8 19.8
16:30 1013 29.91 842 24.86 17.6 63.6 18 -6.8 19.8
16:35 1013 29.91 842 24.86 17.6 63.6 18 -6.8 19.8
16:40 1013 29.91 842 24.86 17.5 63.6 18 -6.8 19.8
16:45 1013 29.91 842 24.86 17.5 63.4 19 -6.6 20.1
16:50 1013 29.91 842 24.86 17.3 63.2 19 -6.7 19.9
16:55 1012 29.88 842 24.86 17.3 63.1 19 -6.6 20.2
17:00 1012 29.88 842 24.86 17.4 63.3 19 -6.3 20.7
17:05 1012 29.88 842 24.86 17.3 63.1 19 -6.2 20.8
17:10 1012 29.88 841 24.83 17.2 62.9 19 -6.5 20.4
17:15 1012 29.88 841 24.83 17.1 62.7 19 -6.4 20.5
17:20 1012 29.88 841 24.83 16.9 62.5 20 -5.9 21.4
17:25 1012 29.88 841 24.83 16.8 62.3 21 -5.7 21.7
17:30 1012 29.88 841 24.83 16.8 62.2 21 -5.7 21.8
17:35 1012 29.88 841 24.83 16.7 62 22 -5.2 22.6
17:40 1012 29.88 841 24.83 16.6 61.9 22 -5.2 22.6
17:45 1012 29.88 841 24.83 16.6 61.9 22 -5 23
17:50 1012 29.88 841 24.83 16.6 61.8 22 -4.9 23.1
17:55 1012 29.88 841 24.83 16.6 61.9 22 -4.8 23.3
18:00 1012 29.88 841 24.83 16.6 61.9 22 -4.8 23.3
18:05 1012 29.88 841 24.83 16.5 61.7 22 -4.9 23.1
18:10 1012 29.88 841 24.83 16.5 61.7 23 -4.8 23.3
18:15 1012 29.88 841 24.83 16.6 61.9 23 -4.6 23.7
18:20 1012 29.88 841 24.83 16.6 61.9 22 -4.8 23.3
18:25 1012 29.88 841 24.83 16.6 61.8 23 -4.8 23.4
18:30 1012 29.88 841 24.83 16.4 61.6 23 -4.7 23.5
18:35 1012 29.88 841 24.83 16.4 61.5 23 -4.9 23.1
18:40 1012 29.88 841 24.83 16.3 61.3 23 -4.9 23.2
18:45 1012 29.88 841 24.83 16.2 61.1 23 -5 23
18:50 1012 29.88 841 24.83 16.2 61.1 23 -5.1 22.9
18:55 1012 29.88 841 24.83 16.2 61.1 23 -5.1 22.8
19:00 1012 29.88 841 24.83 16.1 61 23 -5 23
19:05 1012 29.88 841 24.83 16 60.9 23 -5.2 22.7
19:10 1012 29.88 841 24.83 16.1 60.9 23 -4.9 23.2
19:15 1012 29.88 841 24.83 15.9 60.6 23 -4.9 23.1
19:20 1012 29.88 841 24.83 15.8 60.5 24 -4.9 23.2
19:25 1012 29.88 841 24.83 15.7 60.2 24 -4.9 23.2
19:30 1012 29.88 841 24.83 15.6 60.2 23 -5.2 22.7
19:35 1012 29.88 841 24.83 15.6 60.2 23 -5.2 22.6
19:40 1012 29.88 841 24.83 15.7 60.3 23 -5.3 22.5
19:45 1012 29.88 841 24.83 15.7 60.3 23 -5.2 22.6
19:50 1012 29.88 841 24.83 15.7 60.2 23 -5.2 22.7
19:55 1012 29.88 841 24.83 15.5 59.9 24 -5.2 22.7
20:00 1012 29.88 841 24.83 15.4 59.6 24 -5.2 22.6
20:05 1012 29.88 841 24.83 15.3 59.6 24 -5.1 22.8
20:10 1012 29.88 841 24.83 15.2 59.4 24 -5.2 22.7
20:15 1012 29.88 841 24.83 15.2 59.4 24 -5.2 22.6
20:20 1012 29.88 841 24.83 15.3 59.5 24 -5.2 22.7
20:25 1012 29.88 841 24.83 15.2 59.3 24 -5.1 22.9
20:30 1012 29.88 841 24.83 15.1 59.1 24 -5.2 22.6
20:35 1012 29.88 841 24.83 15.1 59.2 24 -5.2 22.7
20:40 1012 29.88 841 24.83 15.1 59.1 24 -5.1 22.8
20:45 1011 29.85 841 24.83 15.1 59.2 24 -5.2 22.6
20:50 1011 29.85 841 24.83 15.1 59.3 24 -5.2 22.7
20:55 1011 29.85 841 24.83 15.2 59.3 24 -5.2 22.6
21:00 1011 29.85 841 24.83 15.2 59.3 24 -5.2 22.6
21:05 1011 29.85 841 24.83 15.2 59.3 24 -5.1 22.8
21:10 1011 29.85 841 24.83 15 59.1 24 -5.1 22.8
21:15 1011 29.85 841 24.83 15 59 24 -5.1 22.8
21:20 1011 29.85 841 24.83 15 59 24 -5.1 22.9
21:25 1011 29.85 841 24.83 15 59.1 24 -5.1 22.8
21:30 1011 29.85 841 24.83 15.1 59.1 24 -5.1 22.8
21:35 1011 29.85 840 24.81 15 59 24 -5.1 22.8
21:40 1011 29.85 840 24.81 15 58.9 25 -5.1 22.8
21:45 1011 29.85 840 24.81 14.9 58.7 25 -5.1 22.8
21:50 1011 29.85 841 24.83 14.8 58.7 25 -5.1 22.8
21:55 1011 29.85 841 24.83 14.8 58.6 25 -5.1 22.9
22:00 1011 29.85 841 24.83 14.6 58.3 25 -5.1 22.8
22:05 1011 29.85 840 24.81 14.6 58.3 25 -5.1 22.9
22:10 1011 29.85 840 24.81 14.6 58.3 25 -5.1 22.8
22:15 1011 29.85 840 24.81 14.7 58.4 25 -5.2 22.7
22:20 1011 29.85 840 24.81 14.7 58.4 25 -5.2 22.6
22:25 1011 29.85 840 24.81 14.7 58.5 25 -5.2 22.7
22:30 1011 29.85 840 24.81 14.7 58.4 25 -5.2 22.6
22:35 1011 29.85 840 24.81 14.7 58.4 25 -5.2 22.7
22:40 1011 29.85 840 24.81 14.6 58.3 25 -5.3 22.5
22:45 1011 29.85 840 24.81 14.7 58.4 25 -5.3 22.5
22:50 1011 29.85 840 24.81 14.6 58.3 25 -5.1 22.8
22:55 1011 29.85 840 24.81 14.5 58 25 -5.1 22.7
23:00 1011 29.85 840 24.81 14.3 57.8 25 -5.2 22.6
23:05 1011 29.85 840 24.81 14.4 57.9 25 -5.3 22.5
23:10 1011 29.85 840 24.81 14.4 58 25 -5.5 22.2
23:15 1011 29.85 840 24.81 14.4 58 25 -5.3 22.4
23:20 1011 29.85 840 24.81 14.3 57.8 25 -5.4 22.3
23:25 1011 29.85 840 24.81 14.3 57.7 25 -5.3 22.5
23:30 1011 29.85 840 24.81 14.2 57.6 25 -5.3 22.5
23:35 1011 29.85 840 24.81 14.2 57.5 25 -5.4 22.3
23:40 1011 29.85 840 24.81 14.2 57.5 26 -5.3 22.5
23:45 1011 29.85 840 24.81 14.1 57.4 25 -5.4 22.2
23:50 1011 29.85 840 24.81 14.2 57.5 25 -5.3 22.5
23:55 1011 29.85 840 24.81 14.1 57.5 25 -5.5 22.1
24:00 1011 29.85 840 24.81 14.1 57.5 25 -5.4 22.3